• Join FlightAware (Why Join?)
  • Login
  • US Flag GB Flag 
04:57 EDT


 

Airport Tracker/Info


-or-


 

Live Flight TrackerFlight Track Log ✈ N825TD ✈ 30-Oct-2013 ✈ KAPF - KAPF

Flight Track Log - Related Links

Times and Time Zones

All times are in EDT time to prevent confusion due to time zone crossing. See the N825TD flight status page for this flight to view local times or setup timezone preferences in your user account.

Time Position Orientation Groundspeed Altitude Reporting Facility
EDT Latitude Longitude Course Direction KTS MPH feet Rate Location/Type
14:19 26.1524 -81.7756 North  Level Estimated
14:20 26.1586 -81.7752 North  Level FlightAware Approximate
14:21 26.1647 -81.7747 North  Level FlightAware Approximate
14:22 26.1708 -81.7742 North  Level FlightAware Approximate
14:23 26.1770 -81.7737 North  Level FlightAware Approximate
14:24 26.1831 -81.7732 North  Level FlightAware Approximate
14:25 26.1892 -81.7728 North  Level FlightAware Approximate
14:26 26.1954 -81.7723 North  Level FlightAware Approximate
14:27 26.2015 -81.7718 North  Level FlightAware Approximate
14:28 26.1954 -81.7723 North  Level Estimated
14:29 26.2015 -81.7722 North  Level FlightAware Approximate
14:30 26.2076 -81.7721 North  Level FlightAware Approximate
14:31 26.2138 -81.7719 North  Level FlightAware Approximate
14:32 26.2199 -81.7718 North  Level FlightAware Approximate
14:33 26.2260 -81.7717 North  Level FlightAware Approximate
14:34 26.2322 -81.7716 North  Level FlightAware Approximate
14:35 26.2383 -81.7715 North  Level FlightAware Approximate
14:36 26.2445 -81.7714 North  Level FlightAware Approximate
14:37 26.2506 -81.7713 North  Level FlightAware Approximate
14:38 26.2568 -81.7712 North  Level FlightAware Approximate
14:39 26.2629 -81.7711 North  Level FlightAware Approximate
14:40 26.2690 -81.7710 North  Level FlightAware Approximate
14:41 26.2752 -81.7709 North  Level FlightAware Approximate
14:42 26.2813 -81.7707 North  Level FlightAware Approximate
14:43 26.2875 -81.7706 North  Level FlightAware Approximate
14:44 26.2936 -81.7705 North  Level FlightAware Approximate
14:45 26.2997 -81.7704 North  Level FlightAware Approximate
14:46 26.3059 -81.7703 North  Level FlightAware Approximate
14:47 26.3120 -81.7702 North  Level FlightAware Approximate
14:48 26.3181 -81.7701 North  Level FlightAware Approximate
14:49 26.3243 -81.7700 North  Level FlightAware Approximate
14:50 26.3304 -81.7699 North  Level FlightAware Approximate
14:51 26.3366 -81.7698 North  Level FlightAware Approximate
14:52 26.3427 -81.7696 North  Level FlightAware Approximate
14:53 26.3489 -81.7695 North  Level FlightAware Approximate
14:54 26.3550 -81.7694 North  Level FlightAware Approximate
14:55 26.3611 -81.7693 North  Level FlightAware Approximate
14:56 26.3673 -81.7692 North  Level FlightAware Approximate
14:57 26.3734 -81.7691 North  Level FlightAware Approximate
14:58 26.3796 -81.7690 North  Level FlightAware Approximate
14:59 26.3857 -81.7689 North  Level FlightAware Approximate
15:00 26.3918 -81.7688 North  Level FlightAware Approximate
15:01 26.3980 -81.7687 North  Level FlightAware Approximate
15:02 26.4041 -81.7686 North  Level FlightAware Approximate
15:03 26.4102 -81.7685 North  Level FlightAware Approximate
15:04 26.4164 -81.7684 North  Level FlightAware Approximate
15:05 26.4225 -81.7683 North  Level FlightAware Approximate
15:06 26.4287 -81.7682 North  Level FlightAware Approximate
15:07 26.4348 -81.7681 North  Level FlightAware Approximate
15:08 26.4287 -81.7682 180° South  Level Estimated
15:09 26.4225 -81.7681 179° South  Level FlightAware Approximate
15:10 26.4164 -81.7680 179° South  Level FlightAware Approximate
15:11 26.4102 -81.7679 179° South  Level FlightAware Approximate
15:12 26.4041 -81.7678 179° South  Level FlightAware Approximate
15:13 26.3980 -81.7676 179° South  Level FlightAware Approximate
15:14 26.3918 -81.7675 179° South  Level FlightAware Approximate
15:15 26.3857 -81.7674 179° South  Level FlightAware Approximate
15:16 26.3796 -81.7673 179° South  Level FlightAware Approximate
15:17 26.3734 -81.7671 179° South  Level FlightAware Approximate
15:18 26.3673 -81.7670 179° South  Level FlightAware Approximate
15:19 26.3611 -81.7669 179° South  Level FlightAware Approximate
15:20 26.3550 -81.7668 179° South  Level FlightAware Approximate
15:21 26.3489 -81.7666 179° South  Level FlightAware Approximate
15:22 26.3550 -81.7668 359° North  Level FlightAware Approximate
15:23 26.3489 -81.7666 179° South  Level FlightAware Approximate
15:24 26.3550 -81.7668 359° North  Level FlightAware Approximate
15:25 26.3489 -81.7666 179° South  Level FlightAware Approximate
15:26 26.3550 -81.7668 359° North  Level FlightAware Approximate
15:27 26.3489 -81.7666 179° South  Level FlightAware Approximate
15:28 26.3550 -81.7668 359° North  Level FlightAware Approximate
15:29 26.3489 -81.7666 179° South  Level FlightAware Approximate
15:30 26.3550 -81.7668 359° North  Level FlightAware Approximate
15:31 26.3489 -81.7666 179° South  Level FlightAware Approximate
15:32 26.3550 -81.7668 359° North  Level FlightAware Approximate
15:33 26.3489 -81.7666 179° South  Level FlightAware Approximate
15:34 26.3550 -81.7668 359° North  Level FlightAware Approximate
15:35 26.3489 -81.7666 179° South  Level FlightAware Approximate
15:36 26.3444 -81.7667 180° South  Level FlightAware Approximate
15:37 26.3383 -81.7667 180° South  Level FlightAware Approximate
15:38 26.3321 -81.7667 180° South  Level FlightAware Approximate
15:39 26.3260 -81.7667 180° South  Level FlightAware Approximate
15:40 26.3199 -81.7667 180° South  Level FlightAware Approximate
15:41 26.3137 -81.7667 180° South  Level FlightAware Approximate
15:42 26.3076 -81.7667 180° South  Level FlightAware Approximate
15:43 26.3014 -81.7667 180° South  Level FlightAware Approximate
15:44 26.2953 -81.7667 180° South  Level FlightAware Approximate
15:45 26.2892 -81.7667 180° South  Level FlightAware Approximate
15:46 26.2830 -81.7667 180° South  Level FlightAware Approximate
15:47 26.2769 -81.7667 180° South  Level FlightAware Approximate
15:48 26.2707 -81.7667 180° South  Level FlightAware Approximate
15:49 26.2646 -81.7667 180° South  Level FlightAware Approximate
15:50 26.2585 -81.7667 180° South  Level FlightAware Approximate
15:51 26.2523 -81.7667 180° South  Level FlightAware Approximate
15:52 26.2462 -81.7667 180° South  Level FlightAware Approximate
15:53 26.2400 -81.7667 180° South  Level FlightAware Approximate
15:54 26.2339 -81.7667 180° South  Level FlightAware Approximate
15:55 26.2277 -81.7667 180° South  Level FlightAware Approximate
15:56 26.2215 -81.7667 180° South  Level FlightAware Approximate
15:57 26.2154 -81.7667 180° South  Level FlightAware Approximate
15:58 26.2093 -81.7667 180° South  Level FlightAware Approximate
15:59 26.2031 -81.7667 180° South  Level FlightAware Approximate
16:00 26.1970 -81.7667 180° South  Level FlightAware Approximate
16:01 26.1908 -81.7667 180° South  Level FlightAware Approximate
16:02 26.1847 -81.7667 180° South  Level FlightAware Approximate
16:03 26.1786 -81.7667 180° South  Level FlightAware Approximate
16:04 26.1724 -81.7667 180° South  Level FlightAware Approximate
16:05 26.1663 -81.7667 180° South  Level FlightAware Approximate
16:06 26.1601 -81.7667 180° South  Level FlightAware Approximate
16:07 26.1540 -81.7667 180° South  Level FlightAware Approximate
16:08 26.1500 -81.7667 180° South  Level FlightAware Approximate
16:09 26.1518 -81.7732 180° South  Level Estimated
16:10 26.1500 -81.7667 180° South  Level FlightAware Approximate
16:11 26.1518 -81.7732 180° South  Level Estimated
16:12 26.1500 -81.7667 180° South  Level FlightAware Approximate
16:13 26.1518 -81.7732 180° South  Level Estimated
16:14 26.1500 -81.7667 180° South  Level FlightAware Approximate
16:15 26.1518 -81.7732 180° South  Level Estimated
16:16 26.1500 -81.7667 180° South  Level FlightAware Approximate
16:17 26.1518 -81.7732 180° South  Level Estimated
16:18 26.1500 -81.7667 180° South  Level FlightAware Approximate
16:19 26.1518 -81.7732 180° South  Level Estimated
16:20 26.1500 -81.7667 180° South  Level FlightAware Approximate
16:21 26.1518 -81.7732 180° South  Level Estimated
16:22 26.1500 -81.7667 180° South  Level FlightAware Approximate
16:23 26.1518 -81.7732 180° South  Level Estimated
16:24 26.1500 -81.7667 180° South  Level FlightAware Approximate
16:25 26.1518 -81.7732 180° South  Level Estimated
16:26 26.1500 -81.7667 180° South  Level FlightAware Approximate
16:27 26.1518 -81.7732 180° South  Level Estimated
16:28 26.1500 -81.7667 180° South  Level FlightAware Approximate
16:29 26.1518 -81.7732 180° South  Level Estimated